Time;durP1;ratioP1;P1;durP2;ratioP2;P2;SDS_P1;SDS_P2;PMS_P1;PMS_P2;Temp;Humidity;BMP_temperature;BMP_pressure;BME280_temperature;BME280_humidity;BME280_pressure;Samples;Min_cycle;Max_cycle;Signal;HPM_P1;HPM_P2
2023/01/27 00:01:38;;;;;;;;;;;;;;;;;;4963039;28;19918;-83
2023/01/27 00:04:04;;;;;;;;;;;;;;;;;;4966500;28;19993;-85
2023/01/27 00:06:31;;;;;;;;;;;;;;;;;;4957582;28;20330;-85
2023/01/27 00:08:57;;;;;;;;;;;;;;;;;;4973061;28;19922;-83
2023/01/27 00:14:08;;;;;;;;;;;;;;;;;;4962409;28;19915;-86
2023/01/27 00:16:35;;;;;;;;;;;;;;;;;;4971770;28;19921;-87
2023/01/27 00:19:01;;;;;;;;;;;;;;;;;;4964004;28;19921;-83
2023/01/27 00:26:59;;;;;;;;;;;;;;;;;;4983397;28;19922;-85
2023/01/27 00:29:25;;;;;;;;;;;;;;;;;;4975559;28;19921;-86
2023/01/27 00:34:38;;;;;;;;;;;;;;;;;;4983124;28;19919;-87
2023/01/27 00:37:04;;;;;;;;;;;;;;;;;;4944545;28;19926;-88
2023/01/27 00:39:30;;;;;;;;;;;;;;;;;;4966521;28;19935;-88
2023/01/27 00:41:57;;;;;;;;;;;;;;;;;;4950842;28;19922;-88
2023/01/27 00:44:23;;;;;;;;;;;;;;;;;;4966896;28;19941;-89
2023/01/27 00:46:49;;;;;;;;;;;;;;;;;;4963228;28;20004;-88
2023/01/27 00:49:17;;;;;;;;;;;;;;;;;;4966457;28;20341;-88
2023/01/27 00:51:43;;;;;;;;;;;;;;;;;;4969899;28;20471;-88
2023/01/27 00:54:09;;;;;;;;;;;;;;;;;;5002768;28;19921;-87
2023/01/27 00:56:35;;;;;;;;;;;;;;;;;;5004474;28;20292;-86
2023/01/27 00:59:02;;;;;;;;;;;;;;;;;;4990296;28;19925;-85
2023/01/27 01:01:28;;;;;;;;;;;;;;;;;;4999117;28;19977;-85
2023/01/27 01:03:54;;;;;;;;;;;;;;;;;;4990692;28;20031;-86
2023/01/27 01:06:20;;;;;;;;;;;;;;;;;;4984537;28;19921;-86
2023/01/27 01:08:47;;;;;;;;;;;;;;;;;;4993871;28;19917;-85
2023/01/27 01:11:13;;;;;;;;;;;;;;;;;;5003242;28;19937;-86
2023/01/27 01:13:40;;;;;;;;;;;;;;;;;;4972883;28;19914;-87
2023/01/27 01:16:06;;;;;;;;;;;;;;;;;;4986566;28;19917;-87
2023/01/27 01:18:32;;;;;;;;;;;;;;;;;;4984528;28;19926;-87
2023/01/27 01:20:58;;;;;;;;;;;;;;;;;;4988720;28;20376;-86
2023/01/27 01:23:25;;;;;;;;;;;;;;;;;;4981284;28;19918;-86
2023/01/27 01:25:51;;;;;;;;;;;;;;;;;;5003852;28;19918;-84
2023/01/27 01:28:17;;;;;;;;;;;;;;;;;;4989005;28;19918;-84
2023/01/27 01:30:44;;;;;;;;;;;;;;;;;;4991742;28;19987;-85
2023/01/27 01:33:10;;;;;;;;;;;;;;;;;;4983417;28;19925;-84
2023/01/27 01:35:36;;;;;;;;;;;;;;;;;;4988778;28;20018;-86
2023/01/27 01:38:02;;;;;;;;;;;;;;;;;;4981656;28;19929;-85
2023/01/27 01:40:28;;;;;;;;;;;;;;;;;;4993785;28;19925;-86
2023/01/27 01:42:55;;;;;;;;;;;;;;;;;;4974259;28;19925;-86
2023/01/27 01:45:21;;;;;;;;;;;;;;;;;;4982315;28;20572;-86
2023/01/27 01:47:47;;;;;;;;;;;;;;;;;;4983289;28;20017;-86
2023/01/27 01:50:13;;;;;;;;;;;;;;;;;;4992833;28;19922;-86
2023/01/27 01:52:40;;;;;;;;;;;;;;;;;;5009524;28;20389;-86
2023/01/27 01:55:08;;;;;;;;;;;;;;;;;;4979383;28;19918;-86
2023/01/27 01:57:36;;;;;;;;;;;;;;;;;;4990880;28;19975;-85
2023/01/27 02:00:02;;;;;;;;;;;;;;;;;;5003336;28;19967;-85
2023/01/27 02:02:28;;;;;;;;;;;;;;;;;;5001864;28;19928;-85
2023/01/27 02:04:55;;;;;;;;;;;;;;;;;;5004076;28;19941;-85
2023/01/27 02:07:21;;;;;;;;;;;;;;;;;;4986159;28;19984;-85
2023/01/27 02:09:47;;;;;;;;;;;;;;;;;;5008793;28;20004;-85
2023/01/27 02:12:13;;;;;;;;;;;;;;;;;;4988290;28;19928;-85
2023/01/27 02:14:40;;;;;;;;;;;;;;;;;;4992757;28;19925;-86
2023/01/27 02:17:06;;;;;;;;;;;;;;;;;;4992330;28;19926;-85
2023/01/27 02:19:32;;;;;;;;;;;;;;;;;;4991419;28;19961;-85
2023/01/27 02:21:58;;;;;;;;;;;;;;;;;;5005477;28;19926;-85
2023/01/27 02:24:25;;;;;;;;;;;;;;;;;;4972875;28;19917;-85
2023/01/27 02:26:51;;;;;;;;;;;;;;;;;;4995917;28;19922;-85
2023/01/27 02:29:17;;;;;;;;;;;;;;;;;;4994574;28;20037;-86
2023/01/27 02:31:43;;;;;;;;;;;;;;;;;;4986601;28;19944;-86
2023/01/27 02:34:09;;;;;;;;;;;;;;;;;;4988840;28;19918;-86
2023/01/27 02:36:36;;;;;;;;;;;;;;;;;;5005538;28;19930;-86
2023/01/27 02:39:02;;;;;;;;;;;;;;;;;;4983856;28;19925;-85
2023/01/27 02:41:28;;;;;;;;;;;;;;;;;;4986339;28;19949;-86
2023/01/27 02:43:54;;;;;;;;;;;;;;;;;;5010746;28;19964;-86
2023/01/27 02:46:21;;;;;;;;;;;;;;;;;;4986320;28;19918;-85
2023/01/27 02:48:47;;;;;;;;;;;;;;;;;;4978531;28;19925;-85
2023/01/27 02:51:13;;;;;;;;;;;;;;;;;;4986188;28;20000;-83
2023/01/27 02:53:39;;;;;;;;;;;;;;;;;;4989986;28;19974;-84
2023/01/27 02:56:06;;;;;;;;;;;;;;;;;;4983078;28;19921;-85
2023/01/27 02:58:32;;;;;;;;;;;;;;;;;;4987193;28;19925;-85
2023/01/27 03:00:58;;;;;;;;;;;;;;;;;;5007119;28;20389;-85
2023/01/27 03:03:24;;;;;;;;;;;;;;;;;;5004047;28;19929;-86
2023/01/27 03:05:50;;;;;;;;;;;;;;;;;;4972998;28;19924;-86
2023/01/27 03:08:17;;;;;;;;;;;;;;;;;;4986909;28;19921;-86
2023/01/27 03:10:43;;;;;;;;;;;;;;;;;;4983558;28;19925;-85
2023/01/27 03:13:09;;;;;;;;;;;;;;;;;;4987765;28;20660;-85
2023/01/27 03:18:21;;;;;;;;;;;;;;;;;;4990758;28;19922;-86
2023/01/27 03:20:47;;;;;;;;;;;;;;;;;;4982421;28;19953;-87
2023/01/27 03:23:13;;;;;;;;;;;;;;;;;;4986811;28;20290;-87
2023/01/27 03:25:40;;;;;;;;;;;;;;;;;;4992126;28;19917;-87
2023/01/27 03:28:06;;;;;;;;;;;;;;;;;;4989859;28;19925;-86
2023/01/27 03:30:33;;;;;;;;;;;;;;;;;;4988002;28;20210;-87
2023/01/27 03:32:59;;;;;;;;;;;;;;;;;;4983080;28;19917;-86
2023/01/27 03:35:32;;;;;;;;;;;;;;;;;;4972621;28;19999;-87
2023/01/27 03:46:17;;;;;;;;;;;;;;;;;;4992684;28;19928;-87
2023/01/27 03:48:44;;;;;;;;;;;;;;;;;;4990212;28;19929;-88
2023/01/27 03:51:10;;;;;;;;;;;;;;;;;;4984830;28;20376;-88
2023/01/27 03:53:36;;;;;;;;;;;;;;;;;;4983067;28;19921;-88
2023/01/27 03:56:02;;;;;;;;;;;;;;;;;;4985262;28;20332;-88
2023/01/27 03:58:29;;;;;;;;;;;;;;;;;;4987691;28;20404;-88
2023/01/27 04:00:55;;;;;;;;;;;;;;;;;;4986106;28;20412;-88
2023/01/27 04:08:51;;;;;;;;;;;;;;;;;;5002676;28;19940;-83
2023/01/27 04:14:02;;;;;;;;;;;;;;;;;;4990266;28;20293;-84
2023/01/27 04:16:29;;;;;;;;;;;;;;;;;;4983080;28;19989;-86
2023/01/27 04:18:55;;;;;;;;;;;;;;;;;;4987502;28;19933;-86
2023/01/27 04:21:21;;;;;;;;;;;;;;;;;;4979384;28;20024;-86
2023/01/27 04:23:47;;;;;;;;;;;;;;;;;;4989195;28;19917;-86
2023/01/27 04:26:13;;;;;;;;;;;;;;;;;;4984579;28;19918;-87
2023/01/27 04:28:40;;;;;;;;;;;;;;;;;;4987837;28;20699;-88
2023/01/27 04:31:06;;;;;;;;;;;;;;;;;;4986811;28;19928;-87
2023/01/27 04:33:32;;;;;;;;;;;;;;;;;;4996061;28;19968;-87
2023/01/27 04:35:58;;;;;;;;;;;;;;;;;;4976723;28;19924;-87
2023/01/27 04:38:25;;;;;;;;;;;;;;;;;;4975667;28;20536;-88
2023/01/27 04:40:51;;;;;;;;;;;;;;;;;;4973543;28;19961;-88
2023/01/27 04:43:17;;;;;;;;;;;;;;;;;;4996601;28;20001;-89
2023/01/27 04:45:44;;;;;;;;;;;;;;;;;;4971652;28;19913;-89
2023/01/27 04:48:10;;;;;;;;;;;;;;;;;;4971747;28;19925;-89
2023/01/27 04:50:36;;;;;;;;;;;;;;;;;;4980176;28;20410;-88
2023/01/27 04:53:02;;;;;;;;;;;;;;;;;;4978588;28;19918;-85
2023/01/27 04:55:29;;;;;;;;;;;;;;;;;;5001296;28;19921;-90
2023/01/27 04:57:55;;;;;;;;;;;;;;;;;;4992645;28;19918;-89
2023/01/27 05:00:21;;;;;;;;;;;;;;;;;;4979672;28;19926;-88
2023/01/27 05:02:47;;;;;;;;;;;;;;;;;;4994936;28;20373;-91
2023/01/27 05:05:14;;;;;;;;;;;;;;;;;;4955446;28;19941;-89
2023/01/27 05:07:40;;;;;;;;;;;;;;;;;;5005008;28;19914;-92
2023/01/27 05:10:06;;;;;;;;;;;;;;;;;;4986423;28;19921;-90
2023/01/27 05:12:32;;;;;;;;;;;;;;;;;;4991764;28;20352;-96
2023/01/27 05:14:59;;;;;;;;;;;;;;;;;;4979434;28;19921;-90
2023/01/27 05:17:26;;;;;;;;;;;;;;;;;;4977793;28;19961;-88
2023/01/27 05:19:52;;;;;;;;;;;;;;;;;;5000770;28;20390;-88
2023/01/27 05:22:19;;;;;;;;;;;;;;;;;;5000743;28;19917;-88
2023/01/27 05:24:45;;;;;;;;;;;;;;;;;;5003036;28;20003;-91
2023/01/27 05:27:11;;;;;;;;;;;;;;;;;;4999455;28;19987;-88
2023/01/27 05:29:37;;;;;;;;;;;;;;;;;;4999658;28;20052;-88
2023/01/27 05:32:04;;;;;;;;;;;;;;;;;;4987982;28;20433;-87
2023/01/27 05:34:30;;;;;;;;;;;;;;;;;;4986130;28;19925;-88
2023/01/27 05:36:56;;;;;;;;;;;;;;;;;;4980595;28;20132;-84
2023/01/27 05:39:22;;;;;;;;;;;;;;;;;;4978850;28;21033;-86
2023/01/27 05:41:49;;;;;;;;;;;;;;;;;;4980711;28;19928;-85
2023/01/27 05:44:15;;;;;;;;;;;;;;;;;;4977048;28;20373;-81
2023/01/27 05:46:41;;;;;;;;;;;;;;;;;;4986202;28;19922;-83
2023/01/27 05:49:08;;;;;;;;;;;;;;;;;;4997473;28;19922;-81
2023/01/27 05:51:34;;;;;;;;;;;;;;;;;;4947660;28;20298;-83
2023/01/27 05:54:00;;;;;;;;;;;;;;;;;;4964370;28;19922;-82
2023/01/27 05:56:27;;;;;;;;;;;;;;;;;;4964240;28;20009;-82
2023/01/27 05:58:53;;;;;;;;;;;;;;;;;;4953442;28;19918;-85
2023/01/27 06:01:19;;;;;;;;;;;;;;;;;;4954312;28;19945;-84
2023/01/27 06:03:46;;;;;;;;;;;;;;;;;;4960704;28;20589;-81
2023/01/27 06:06:12;;;;;;;;;;;;;;;;;;4967799;28;19918;-82
2023/01/27 06:08:38;;;;;;;;;;;;;;;;;;4969755;28;20397;-82
2023/01/27 06:11:04;;;;;;;;;;;;;;;;;;4958065;28;19918;-82
2023/01/27 06:13:31;;;;;;;;;;;;;;;;;;4970168;28;19984;-83
2023/01/27 06:15:57;;;;;;;;;;;;;;;;;;4966675;28;19929;-83
2023/01/27 06:18:23;;;;;;;;;;;;;;;;;;4977462;28;19925;-82
2023/01/27 06:20:49;;;;;;;;;;;;;;;;;;4979206;28;19995;-82
2023/01/27 06:23:16;;;;;;;;;;;;;;;;;;4974463;28;19938;-82
2023/01/27 06:25:42;;;;;;;;;;;;;;;;;;4978510;28;19969;-82
2023/01/27 06:28:08;;;;;;;;;;;;;;;;;;4966906;28;19922;-83
2023/01/27 06:30:34;;;;;;;;;;;;;;;;;;4959452;28;19914;-83
2023/01/27 06:33:01;;;;;;;;;;;;;;;;;;4982762;28;19925;-82
2023/01/27 06:35:27;;;;;;;;;;;;;;;;;;4969193;28;20301;-81
2023/01/27 06:37:53;;;;;;;;;;;;;;;;;;4968805;28;19918;-81
2023/01/27 06:40:19;;;;;;;;;;;;;;;;;;4986819;28;19937;-82
2023/01/27 06:42:46;;;;;;;;;;;;;;;;;;4969724;28;19930;-81
2023/01/27 06:45:12;;;;;;;;;;;;;;;;;;4983874;28;20568;-81
2023/01/27 06:47:38;;;;;;;;;;;;;;;;;;4959225;28;20759;-81
2023/01/27 06:50:04;;;;;;;;;;;;;;;;;;4974597;28;19991;-81
2023/01/27 06:52:31;;;;;;;;;;;;;;;;;;4982809;28;19922;-81
2023/01/27 06:54:57;;;;;;;;;;;;;;;;;;4985100;28;19925;-82
2023/01/27 06:57:23;;;;;;;;;;;;;;;;;;5009392;28;19986;-81
2023/01/27 06:59:49;;;;;;;;;;;;;;;;;;4986241;28;20003;-81
2023/01/27 07:02:16;;;;;;;;;;;;;;;;;;4978534;28;19922;-81
2023/01/27 07:04:42;;;;;;;;;;;;;;;;;;4976427;28;20420;-81
2023/01/27 07:07:08;;;;;;;;;;;;;;;;;;4961055;28;19988;-80
2023/01/27 07:09:34;;;;;;;;;;;;;;;;;;4996361;28;19921;-82
2023/01/27 07:12:01;;;;;;;;;;;;;;;;;;4947190;28;19940;-81
2023/01/27 07:14:27;;;;;;;;;;;;;;;;;;4956533;28;20685;-82
2023/01/27 07:16:53;;;;;;;;;;;;;;;;;;4993692;28;20377;-81
2023/01/27 07:19:19;;;;;;;;;;;;;;;;;;4981522;28;20711;-81
2023/01/27 07:21:46;;;;;;;;;;;;;;;;;;4990526;28;19921;-82
2023/01/27 07:24:12;;;;;;;;;;;;;;;;;;4964983;28;19997;-82
2023/01/27 07:26:38;;;;;;;;;;;;;;;;;;4964037;28;20006;-82
2023/01/27 07:29:04;;;;;;;;;;;;;;;;;;4981720;28;20539;-82
2023/01/27 07:31:30;;;;;;;;;;;;;;;;;;5000896;28;19964;-82
2023/01/27 07:33:57;;;;;;;;;;;;;;;;;;5006525;28;19926;-82
2023/01/27 07:36:23;;;;;;;;;;;;;;;;;;4978231;28;20679;-83
2023/01/27 07:38:49;;;;;;;;;;;;;;;;;;4981324;28;19953;-82
2023/01/27 07:41:15;;;;;;;;;;;;;;;;;;4978856;28;19965;-81
2023/01/27 07:43:42;;;;;;;;;;;;;;;;;;4984410;28;19922;-82
2023/01/27 07:46:08;;;;;;;;;;;;;;;;;;4996619;28;20381;-82
2023/01/27 07:48:34;;;;;;;;;;;;;;;;;;5002093;28;19917;-82
2023/01/27 07:51:00;;;;;;;;;;;;;;;;;;4961143;28;19965;-81
2023/01/27 07:53:27;;;;;;;;;;;;;;;;;;4994960;28;20393;-82
2023/01/27 07:55:53;;;;;;;;;;;;;;;;;;4966570;28;19945;-82
2023/01/27 07:58:19;;;;;;;;;;;;;;;;;;4963260;28;20529;-81
2023/01/27 08:00:45;;;;;;;;;;;;;;;;;;4979294;28;19996;-82
2023/01/27 08:03:11;;;;;;;;;;;;;;;;;;4980692;28;19976;-82
2023/01/27 08:05:38;;;;;;;;;;;;;;;;;;4978291;28;19921;-81
2023/01/27 08:08:04;;;;;;;;;;;;;;;;;;4980254;28;20029;-81
2023/01/27 08:10:30;;;;;;;;;;;;;;;;;;4969962;28;20423;-82
2023/01/27 08:12:56;;;;;;;;;;;;;;;;;;4974664;28;19921;-81
2023/01/27 08:15:23;;;;;;;;;;;;;;;;;;4972736;28;19977;-81
2023/01/27 08:17:49;;;;;;;;;;;;;;;;;;4979421;28;20385;-83
2023/01/27 08:20:16;;;;;;;;;;;;;;;;;;4991829;28;19988;-81
2023/01/27 08:22:44;;;;;;;;;;;;;;;;;;4989038;28;19913;-82
2023/01/27 08:25:10;;;;;;;;;;;;;;;;;;4987195;28;19917;-82
2023/01/27 08:27:36;;;;;;;;;;;;;;;;;;4988229;28;19996;-82
2023/01/27 08:30:02;;;;;;;;;;;;;;;;;;4988655;28;19921;-82
2023/01/27 08:32:29;;;;;;;;;;;;;;;;;;4985379;28;20006;-82
2023/01/27 08:34:55;;;;;;;;;;;;;;;;;;4977432;28;20098;-82
2023/01/27 08:37:21;;;;;;;;;;;;;;;;;;4978370;28;19922;-81
2023/01/27 08:39:47;;;;;;;;;;;;;;;;;;5001131;28;19926;-82
2023/01/27 08:42:14;;;;;;;;;;;;;;;;;;4977026;28;19940;-82
2023/01/27 08:44:40;;;;;;;;;;;;;;;;;;4995743;28;20043;-82
2023/01/27 08:47:06;;;;;;;;;;;;;;;;;;4972041;28;20076;-82
2023/01/27 08:49:32;;;;;;;;;;;;;;;;;;4987482;28;19925;-82
2023/01/27 08:51:59;;;;;;;;;;;;;;;;;;5002098;28;20009;-82
2023/01/27 08:54:25;;;;;;;;;;;;;;;;;;4957879;28;19922;-82
2023/01/27 08:56:51;;;;;;;;;;;;;;;;;;4955699;28;19918;-83
2023/01/27 08:59:38;;;;;;;;;;;;;;;;;;4882169;28;19929;-83
2023/01/27 09:02:04;;;;;;;;;;;;;;;;;;4961812;28;19922;-82
2023/01/27 09:04:30;;;;;;;;;;;;;;;;;;4973874;28;19929;-83
2023/01/27 09:06:56;;;;;;;;;;;;;;;;;;4975401;28;19925;-83
2023/01/27 09:09:22;;;;;;;;;;;;;;;;;;4983757;28;19917;-83
2023/01/27 09:11:49;;;;;;;;;;;;;;;;;;4965200;28;19976;-83
2023/01/27 09:14:15;;;;;;;;;;;;;;;;;;4990373;28;19917;-83
2023/01/27 09:16:41;;;;;;;;;;;;;;;;;;4970898;28;20282;-83
2023/01/27 09:19:07;;;;;;;;;;;;;;;;;;4979329;28;19914;-82
2023/01/27 09:21:33;;;;;;;;;;;;;;;;;;4970409;28;19951;-83
2023/01/27 09:24:00;;;;;;;;;;;;;;;;;;4964112;28;19968;-83
2023/01/27 09:26:26;;;;;;;;;;;;;;;;;;4987462;28;20436;-83
2023/01/27 09:28:52;;;;;;;;;;;;;;;;;;4964274;28;19922;-83
2023/01/27 09:31:18;;;;;;;;;;;;;;;;;;4990297;28;19926;-83
2023/01/27 09:33:44;;;;;;;;;;;;;;;;;;4970149;28;19918;-83
2023/01/27 09:36:11;;;;;;;;;;;;;;;;;;4976885;28;19921;-82
2023/01/27 09:38:37;;;;;;;;;;;;;;;;;;4973568;28;19914;-82
2023/01/27 09:41:03;;;;;;;;;;;;;;;;;;4970672;28;19926;-83
2023/01/27 09:43:29;;;;;;;;;;;;;;;;;;4978766;28;20589;-83
2023/01/27 09:45:56;;;;;;;;;;;;;;;;;;4962915;28;20584;-83
2023/01/27 09:48:22;;;;;;;;;;;;;;;;;;4959805;28;19917;-82
2023/01/27 09:50:48;;;;;;;;;;;;;;;;;;4974064;28;19929;-83
2023/01/27 09:53:14;;;;;;;;;;;;;;;;;;4984367;28;19918;-83
2023/01/27 09:55:41;;;;;;;;;;;;;;;;;;4983399;28;19984;-82
2023/01/27 09:58:07;;;;;;;;;;;;;;;;;;4989027;28;19917;-82
2023/01/27 10:00:33;;;;;;;;;;;;;;;;;;4982984;28;20414;-83
2023/01/27 10:03:00;;;;;;;;;;;;;;;;;;4984924;28;19957;-82
2023/01/27 10:05:26;;;;;;;;;;;;;;;;;;4978851;28;19921;-82
2023/01/27 10:07:52;;;;;;;;;;;;;;;;;;4985068;28;19922;-82
2023/01/27 10:10:19;;;;;;;;;;;;;;;;;;4977304;28;19921;-82
2023/01/27 10:12:45;;;;;;;;;;;;;;;;;;4986467;28;20653;-82
2023/01/27 10:15:11;;;;;;;;;;;;;;;;;;4983339;28;19925;-82
2023/01/27 10:17:37;;;;;;;;;;;;;;;;;;4979693;28;19968;-81
2023/01/27 10:20:03;;;;;;;;;;;;;;;;;;4982072;28;19980;-81
2023/01/27 10:22:30;;;;;;;;;;;;;;;;;;4958018;28;20051;-83
2023/01/27 10:24:58;;;;;;;;;;;;;;;;;;4998897;28;19917;-82
2023/01/27 10:27:24;;;;;;;;;;;;;;;;;;4978947;28;19924;-82
2023/01/27 10:29:50;;;;;;;;;;;;;;;;;;4986985;28;19922;-81
2023/01/27 10:32:17;;;;;;;;;;;;;;;;;;4981103;28;20343;-82
2023/01/27 10:34:43;;;;;;;;;;;;;;;;;;4978491;28;19940;-82
2023/01/27 10:37:09;;;;;;;;;;;;;;;;;;4974508;28;20381;-82
2023/01/27 10:39:38;;;;;;;;;;;;;;;;;;4975091;28;19926;-82
2023/01/27 10:42:05;;;;;;;;;;;;;;;;;;4981023;28;19949;-82
2023/01/27 10:44:31;;;;;;;;;;;;;;;;;;4983680;28;19918;-82
2023/01/27 10:46:58;;;;;;;;;;;;;;;;;;4977008;28;19929;-82
2023/01/27 10:49:24;;;;;;;;;;;;;;;;;;4976374;28;19913;-82
2023/01/27 10:51:50;;;;;;;;;;;;;;;;;;4987026;28;19960;-82
2023/01/27 10:54:17;;;;;;;;;;;;;;;;;;4977481;28;19975;-82
2023/01/27 10:56:43;;;;;;;;;;;;;;;;;;4984298;28;19972;-81
2023/01/27 10:59:09;;;;;;;;;;;;;;;;;;4998476;28;19991;-83
2023/01/27 11:01:36;;;;;;;;;;;;;;;;;;4968804;28;19934;-83
2023/01/27 11:04:02;;;;;;;;;;;;;;;;;;4986942;28;19940;-82
2023/01/27 11:06:28;;;;;;;;;;;;;;;;;;4986595;28;19925;-83
2023/01/27 11:08:54;;;;;;;;;;;;;;;;;;4986662;28;19968;-82
2023/01/27 11:14:06;;;;;;;;;;;;;;;;;;4988193;28;19917;-83
2023/01/27 11:16:32;;;;;;;;;;;;;;;;;;5001345;28;20344;-83
2023/01/27 11:18:58;;;;;;;;;;;;;;;;;;4986220;28;19925;-82
2023/01/27 11:21:24;;;;;;;;;;;;;;;;;;5000587;28;20381;-82
2023/01/27 11:23:52;;;;;;;;;;;;;;;;;;4986031;28;19924;-82
2023/01/27 11:26:18;;;;;;;;;;;;;;;;;;4989317;28;20344;-83
2023/01/27 11:28:45;;;;;;;;;;;;;;;;;;4989237;28;19925;-82
2023/01/27 11:31:11;;;;;;;;;;;;;;;;;;4981489;28;19922;-82
2023/01/27 11:33:39;;;;;;;;;;;;;;;;;;4996757;28;19976;-83
2023/01/27 11:36:09;;;;;;;;;;;;;;;;;;4990361;28;20210;-83
2023/01/27 11:38:35;;;;;;;;;;;;;;;;;;5010821;28;19921;-85
2023/01/27 11:41:01;;;;;;;;;;;;;;;;;;4991549;28;19925;-83
2023/01/27 11:43:27;;;;;;;;;;;;;;;;;;4992656;28;20314;-82
2023/01/27 11:45:54;;;;;;;;;;;;;;;;;;4986474;28;19913;-82
2023/01/27 11:48:20;;;;;;;;;;;;;;;;;;5001210;28;20282;-82
2023/01/27 11:50:46;;;;;;;;;;;;;;;;;;4979576;28;19976;-82
2023/01/27 11:53:12;;;;;;;;;;;;;;;;;;4979365;28;19921;-82
2023/01/27 11:55:39;;;;;;;;;;;;;;;;;;5006669;28;19948;-82
2023/01/27 11:58:05;;;;;;;;;;;;;;;;;;4996131;28;19975;-82
2023/01/27 12:00:31;;;;;;;;;;;;;;;;;;5005960;28;19980;-84
2023/01/27 12:02:57;;;;;;;;;;;;;;;;;;5002963;28;19917;-84
2023/01/27 12:05:23;;;;;;;;;;;;;;;;;;4972183;28;19918;-84
2023/01/27 12:07:50;;;;;;;;;;;;;;;;;;4972263;28;20071;-83
2023/01/27 12:10:16;;;;;;;;;;;;;;;;;;5003865;28;19918;-83
2023/01/27 12:12:42;;;;;;;;;;;;;;;;;;4981921;28;19914;-85
2023/01/27 12:15:08;;;;;;;;;;;;;;;;;;5010598;28;19926;-85
2023/01/27 12:17:34;;;;;;;;;;;;;;;;;;4987910;28;20519;-85
2023/01/27 12:20:01;;;;;;;;;;;;;;;;;;4977648;28;20398;-86
2023/01/27 12:22:27;;;;;;;;;;;;;;;;;;5001828;28;19917;-86
2023/01/27 12:24:53;;;;;;;;;;;;;;;;;;5013918;28;20241;-86
2023/01/27 12:27:20;;;;;;;;;;;;;;;;;;4991531;28;19967;-85
2023/01/27 12:29:46;;;;;;;;;;;;;;;;;;4975918;28;20389;-86
2023/01/27 12:32:12;;;;;;;;;;;;;;;;;;5003982;28;20373;-88
2023/01/27 12:34:38;;;;;;;;;;;;;;;;;;4976063;28;19913;-85
2023/01/27 12:37:05;;;;;;;;;;;;;;;;;;4994446;28;19980;-90
2023/01/27 12:39:31;;;;;;;;;;;;;;;;;;4983425;28;20252;-94
2023/01/27 12:41:57;;;;;;;;;;;;;;;;;;4991491;28;19956;-89
2023/01/27 12:44:26;;;;;;;;;;;;;;;;;;4989713;28;19972;-94
2023/01/27 12:46:52;;;;;;;;;;;;;;;;;;5001829;28;20004;-92
2023/01/27 12:49:18;;;;;;;;;;;;;;;;;;4978018;28;20012;-93
2023/01/27 12:51:47;;;;;;;;;;;;;;;;;;4985056;28;19930;-91
2023/01/27 12:54:13;;;;;;;;;;;;;;;;;;5003839;28;19972;-93
2023/01/27 12:56:39;;;;;;;;;;;;;;;;;;4992023;28;19925;-82
2023/01/27 12:59:06;;;;;;;;;;;;;;;;;;4985318;28;21101;-79
2023/01/27 13:01:32;;;;;;;;;;;;;;;;;;4989608;28;20671;-85
2023/01/27 13:03:59;;;;;;;;;;;;;;;;;;4988870;28;19921;-85
2023/01/27 13:06:25;;;;;;;;;;;;;;;;;;4991587;28;19982;-82
2023/01/27 13:08:51;;;;;;;;;;;;;;;;;;5006542;28;19995;-76
2023/01/27 13:11:17;;;;;;;;;;;;;;;;;;5003589;28;19929;-77
2023/01/27 13:13:43;;;;;;;;;;;;;;;;;;4985025;28;19918;-77
2023/01/27 13:16:10;;;;;;;;;;;;;;;;;;5004987;28;19926;-79
2023/01/27 13:18:41;;;;;;;;;;;;;;;;;;4999210;28;19926;-79
2023/01/27 13:21:07;;;;;;;;;;;;;;;;;;4983499;28;19969;-79
2023/01/27 13:23:33;;;;;;;;;;;;;;;;;;5002499;28;19924;-79
2023/01/27 13:26:00;;;;;;;;;;;;;;;;;;4987172;28;19922;-78
2023/01/27 13:28:26;;;;;;;;;;;;;;;;;;4998367;28;19993;-79
2023/01/27 13:30:52;;;;;;;;;;;;;;;;;;4986432;28;19929;-79
2023/01/27 13:33:18;;;;;;;;;;;;;;;;;;4981268;28;20292;-79
2023/01/27 13:35:44;;;;;;;;;;;;;;;;;;4985189;28;20019;-78
2023/01/27 13:38:11;;;;;;;;;;;;;;;;;;4980212;28;20703;-79
2023/01/27 13:40:37;;;;;;;;;;;;;;;;;;4985826;28;19925;-79
2023/01/27 13:43:03;;;;;;;;;;;;;;;;;;4974138;28;20554;-79
2023/01/27 13:45:31;;;;;;;;;;;;;;;;;;4970494;28;19918;-80
2023/01/27 13:47:57;;;;;;;;;;;;;;;;;;4982444;28;19921;-80
2023/01/27 13:50:23;;;;;;;;;;;;;;;;;;4979940;28;19926;-80
2023/01/27 13:52:50;;;;;;;;;;;;;;;;;;4980308;28;19957;-80
2023/01/27 13:55:16;;;;;;;;;;;;;;;;;;4979279;28;19917;-80
2023/01/27 13:57:42;;;;;;;;;;;;;;;;;;4993851;28;20393;-79
2023/01/27 14:00:09;;;;;;;;;;;;;;;;;;4980034;28;19969;-80
2023/01/27 14:02:35;;;;;;;;;;;;;;;;;;4978218;28;19918;-79
2023/01/27 14:05:01;;;;;;;;;;;;;;;;;;4961574;28;19996;-79
2023/01/27 14:07:28;;;;;;;;;;;;;;;;;;4993950;28;19928;-78
2023/01/27 14:09:54;;;;;;;;;;;;;;;;;;4975522;28;19949;-79
2023/01/27 14:12:20;;;;;;;;;;;;;;;;;;4979090;28;20309;-79
2023/01/27 14:14:46;;;;;;;;;;;;;;;;;;4996783;28;19922;-78
2023/01/27 14:17:12;;;;;;;;;;;;;;;;;;4976478;28;19926;-78
2023/01/27 14:19:38;;;;;;;;;;;;;;;;;;5001913;28;19937;-78
2023/01/27 14:22:05;;;;;;;;;;;;;;;;;;4984492;28;19949;-78
2023/01/27 14:24:31;;;;;;;;;;;;;;;;;;4989869;28;19922;-78
2023/01/27 14:26:59;;;;;;;;;;;;;;;;;;5001942;28;20014;-78
2023/01/27 14:29:26;;;;;;;;;;;;;;;;;;4981108;28;19921;-79
2023/01/27 14:31:52;;;;;;;;;;;;;;;;;;4993625;28;20067;-78
2023/01/27 14:34:18;;;;;;;;;;;;;;;;;;4991246;28;20290;-79
2023/01/27 14:36:44;;;;;;;;;;;;;;;;;;4988723;28;19917;-79
2023/01/27 14:39:10;;;;;;;;;;;;;;;;;;4984161;28;19925;-78
2023/01/27 14:41:37;;;;;;;;;;;;;;;;;;4988166;28;19964;-79
2023/01/27 14:44:03;;;;;;;;;;;;;;;;;;4988440;28;20337;-79
2023/01/27 14:46:29;;;;;;;;;;;;;;;;;;4987211;28;19929;-79
2023/01/27 14:48:55;;;;;;;;;;;;;;;;;;5003804;28;19937;-79
2023/01/27 14:51:22;;;;;;;;;;;;;;;;;;4987797;28;20007;-79
2023/01/27 14:53:48;;;;;;;;;;;;;;;;;;4972995;28;19964;-79
2023/01/27 14:56:14;;;;;;;;;;;;;;;;;;4988461;28;19921;-79
2023/01/27 14:58:41;;;;;;;;;;;;;;;;;;5002220;28;19922;-79
2023/01/27 15:01:07;;;;;;;;;;;;;;;;;;4976838;28;20290;-79
2023/01/27 15:03:33;;;;;;;;;;;;;;;;;;4989198;28;20020;-79
2023/01/27 15:05:59;;;;;;;;;;;;;;;;;;4998062;28;19918;-78
2023/01/27 15:08:26;;;;;;;;;;;;;;;;;;4982713;28;19921;-78
2023/01/27 15:10:52;;;;;;;;;;;;;;;;;;4991602;28;19922;-78
2023/01/27 15:13:18;;;;;;;;;;;;;;;;;;4997174;28;19925;-78
2023/01/27 15:15:44;;;;;;;;;;;;;;;;;;4982885;28;19976;-78
2023/01/27 15:18:10;;;;;;;;;;;;;;;;;;4982691;28;20547;-77
2023/01/27 15:20:37;;;;;;;;;;;;;;;;;;4981280;28;19953;-77
2023/01/27 15:23:03;;;;;;;;;;;;;;;;;;4977075;28;19922;-78
2023/01/27 15:25:32;;;;;;;;;;;;;;;;;;4986644;28;19924;-77
2023/01/27 15:27:58;;;;;;;;;;;;;;;;;;4999080;28;19925;-78
2023/01/27 15:30:27;;;;;;;;;;;;;;;;;;4992639;28;19918;-78
2023/01/27 15:32:54;;;;;;;;;;;;;;;;;;4982365;28;19930;-78
2023/01/27 15:35:20;;;;;;;;;;;;;;;;;;4988487;28;19917;-80
2023/01/27 15:37:46;;;;;;;;;;;;;;;;;;4980571;28;19928;-79
2023/01/27 15:40:15;;;;;;;;;;;;;;;;;;4969116;28;19913;-79
2023/01/27 15:42:41;;;;;;;;;;;;;;;;;;4989028;28;19957;-80
2023/01/27 15:45:07;;;;;;;;;;;;;;;;;;4987434;28;20629;-79
2023/01/27 15:47:36;;;;;;;;;;;;;;;;;;4991327;28;19921;-79
2023/01/27 15:50:03;;;;;;;;;;;;;;;;;;5000361;28;19926;-79
2023/01/27 15:52:29;;;;;;;;;;;;;;;;;;4965208;28;19926;-78
2023/01/27 15:54:55;;;;;;;;;;;;;;;;;;4970478;28;20432;-78
2023/01/27 15:57:21;;;;;;;;;;;;;;;;;;4986280;28;19937;-78
2023/01/27 15:59:48;;;;;;;;;;;;;;;;;;4969736;28;19924;-78
2023/01/27 16:02:14;;;;;;;;;;;;;;;;;;4962227;28;19934;-78
2023/01/27 16:04:42;;;;;;;;;;;;;;;;;;4973129;28;19948;-78
2023/01/27 16:07:09;;;;;;;;;;;;;;;;;;4962664;28;19926;-78
2023/01/27 16:09:35;;;;;;;;;;;;;;;;;;4957207;28;20635;-79
2023/01/27 16:12:01;;;;;;;;;;;;;;;;;;4974219;28;19954;-78
2023/01/27 16:14:27;;;;;;;;;;;;;;;;;;4957026;28;19936;-77
2023/01/27 16:16:54;;;;;;;;;;;;;;;;;;4951529;28;19961;-77
2023/01/27 16:19:20;;;;;;;;;;;;;;;;;;4960243;28;19918;-78
2023/01/27 16:21:49;;;;;;;;;;;;;;;;;;4983882;28;19980;-79
2023/01/27 16:24:18;;;;;;;;;;;;;;;;;;4939076;28;20334;-78
2023/01/27 16:26:44;;;;;;;;;;;;;;;;;;4960047;28;19926;-79
2023/01/27 16:29:10;;;;;;;;;;;;;;;;;;4961629;28;19956;-78
2023/01/27 16:31:36;;;;;;;;;;;;;;;;;;4964797;28;19949;-78
2023/01/27 16:34:03;;;;;;;;;;;;;;;;;;4982094;28;19914;-78
2023/01/27 16:36:29;;;;;;;;;;;;;;;;;;4967212;28;20442;-78
2023/01/27 16:38:55;;;;;;;;;;;;;;;;;;4964683;28;19925;-78
2023/01/27 16:41:22;;;;;;;;;;;;;;;;;;4951592;28;19973;-78
2023/01/27 16:43:48;;;;;;;;;;;;;;;;;;4962136;28;20412;-76
2023/01/27 16:46:15;;;;;;;;;;;;;;;;;;4927266;28;19922;-77
2023/01/27 16:48:41;;;;;;;;;;;;;;;;;;4966501;28;19922;-77
2023/01/27 16:51:07;;;;;;;;;;;;;;;;;;4962356;28;19930;-77
2023/01/27 16:53:33;;;;;;;;;;;;;;;;;;4999454;28;19914;-78
2023/01/27 16:56:00;;;;;;;;;;;;;;;;;;4989500;28;20439;-78
2023/01/27 16:58:26;;;;;;;;;;;;;;;;;;4998146;28;19927;-77
2023/01/27 17:00:52;;;;;;;;;;;;;;;;;;4995118;28;19934;-76
2023/01/27 17:03:19;;;;;;;;;;;;;;;;;;5001281;28;20451;-76
2023/01/27 17:05:45;;;;;;;;;;;;;;;;;;4981547;28;19925;-75
2023/01/27 17:08:11;;;;;;;;;;;;;;;;;;4981226;28;21502;-76
2023/01/27 17:10:37;;;;;;;;;;;;;;;;;;4978533;28;19914;-77
2023/01/27 17:13:04;;;;;;;;;;;;;;;;;;4998639;28;20335;-76